createdAt,value
2017-11-10T00:00:09.958Z,7.80
2017-11-10T00:02:38.206Z,7.90
2017-11-10T00:05:05.683Z,7.90
2017-11-10T00:07:33.273Z,8.00
2017-11-10T00:10:00.728Z,8.00
2017-11-10T00:12:28.202Z,8.00
2017-11-10T00:14:55.675Z,8.00
2017-11-10T00:17:23.154Z,7.90
2017-11-10T00:19:50.637Z,7.90
2017-11-10T00:22:18.877Z,8.00
2017-11-10T00:24:46.371Z,8.00
2017-11-10T00:27:14.609Z,8.00
2017-11-10T00:29:42.085Z,8.00
2017-11-10T00:32:09.538Z,8.00
2017-11-10T00:34:37.097Z,7.90
2017-11-10T00:37:04.590Z,8.00
2017-11-10T00:39:32.081Z,7.90
2017-11-10T00:41:59.561Z,8.00
2017-11-10T00:44:27.049Z,8.00
2017-11-10T00:46:55.296Z,8.00
2017-11-10T00:49:22.766Z,8.00
2017-11-10T00:51:50.999Z,8.00
2017-11-10T00:54:18.559Z,8.10
2017-11-10T00:56:46.019Z,8.10
2017-11-10T00:59:13.502Z,8.00
2017-11-10T01:01:41.907Z,8.00
2017-11-10T01:04:10.272Z,8.10
2017-11-10T01:06:37.742Z,8.10
2017-11-10T01:09:05.987Z,8.10
2017-11-10T01:11:33.472Z,8.00
2017-11-10T01:14:01.798Z,8.00
2017-11-10T01:16:30.129Z,8.00
2017-11-10T01:18:58.473Z,8.10
2017-11-10T01:21:25.942Z,8.10
2017-11-10T01:23:53.562Z,8.10
2017-11-10T01:26:21.035Z,8.10
2017-11-10T01:28:48.501Z,8.10
2017-11-10T01:31:15.976Z,8.10
2017-11-10T01:33:43.442Z,8.10
2017-11-10T01:36:10.905Z,8.10
2017-11-10T01:38:39.255Z,8.20
2017-11-10T01:41:06.731Z,8.20
2017-11-10T01:43:34.203Z,8.20
2017-11-10T01:46:02.448Z,8.20
2017-11-10T01:48:30.831Z,8.20
2017-11-10T01:50:58.298Z,8.20
2017-11-10T01:53:26.558Z,8.20
2017-11-10T01:55:55.527Z,8.10
2017-11-10T01:58:23.113Z,8.10
2017-11-10T02:00:50.578Z,8.20
2017-11-10T02:03:18.099Z,8.20
2017-11-10T02:05:46.641Z,8.20
2017-11-10T02:08:14.279Z,8.20
2017-11-10T02:10:41.908Z,8.10
2017-11-10T02:13:10.495Z,8.10
2017-11-10T02:15:37.975Z,8.10
2017-11-10T02:18:05.441Z,8.10
2017-11-10T02:20:33.711Z,8.20
2017-11-10T02:23:01.184Z,8.10
2017-11-10T02:25:29.431Z,8.20
2017-11-10T02:27:57.670Z,8.20
2017-11-10T02:30:25.143Z,8.10
2017-11-10T02:32:52.612Z,8.20
2017-11-10T02:35:20.088Z,8.20
2017-11-10T02:37:47.549Z,8.20
2017-11-10T02:40:15.789Z,8.20
2017-11-10T02:42:43.291Z,8.20
2017-11-10T02:45:13.327Z,8.20
2017-11-10T02:47:40.806Z,8.20
2017-11-10T02:50:08.286Z,8.20
2017-11-10T02:52:35.756Z,8.20
2017-11-10T02:55:03.993Z,8.30
2017-11-10T02:57:31.453Z,8.30
2017-11-10T02:59:58.933Z,8.30
2017-11-10T03:02:26.407Z,8.30
2017-11-10T03:04:53.894Z,8.30
2017-11-10T03:07:22.123Z,8.30
2017-11-10T03:09:49.590Z,8.30
2017-11-10T03:12:17.061Z,8.30
2017-11-10T03:14:45.336Z,8.20
2017-11-10T03:17:13.579Z,8.30
2017-11-10T03:19:41.039Z,8.30
2017-11-10T03:22:08.527Z,8.30
2017-11-10T03:24:36.822Z,8.30
2017-11-10T03:27:04.301Z,8.30
2017-11-10T03:29:31.775Z,8.30
2017-11-10T03:31:59.270Z,8.30
2017-11-10T03:34:26.762Z,8.30
2017-11-10T03:36:54.257Z,8.30
2017-11-10T03:39:21.884Z,8.30
2017-11-10T03:41:49.354Z,8.30
2017-11-10T03:44:16.834Z,8.30
2017-11-10T03:46:44.299Z,8.30
2017-11-10T03:49:11.779Z,8.30
2017-11-10T03:51:39.427Z,8.30
2017-11-10T03:54:08.407Z,8.30
2017-11-10T03:56:35.962Z,8.30
2017-11-10T03:59:03.427Z,8.30
2017-11-10T04:01:30.923Z,8.40
2017-11-10T04:03:59.152Z,8.40
2017-11-10T04:06:26.637Z,8.40
2017-11-10T04:08:54.138Z,8.40
2017-11-10T04:11:21.595Z,8.40
2017-11-10T04:13:49.091Z,8.40
2017-11-10T04:16:16.563Z,8.40
2017-11-10T04:18:44.065Z,8.40
2017-11-10T04:21:11.559Z,8.40
2017-11-10T04:23:39.049Z,8.40
2017-11-10T04:26:07.292Z,8.50
2017-11-10T04:28:34.753Z,8.40
2017-11-10T04:31:02.229Z,8.40
2017-11-10T04:33:30.473Z,8.50
2017-11-10T04:35:57.936Z,8.50
2017-11-10T04:38:25.420Z,8.50
2017-11-10T04:40:53.668Z,8.50
2017-11-10T04:43:21.318Z,8.50
2017-11-10T04:45:48.820Z,8.60
2017-11-10T04:48:17.056Z,8.50
2017-11-10T04:50:44.508Z,8.50
2017-11-10T04:53:11.994Z,8.60
2017-11-10T04:55:39.496Z,8.60
2017-11-10T04:58:06.977Z,8.60
2017-11-10T05:00:34.465Z,8.60
2017-11-10T05:03:02.065Z,8.60
2017-11-10T05:05:29.547Z,8.70
2017-11-10T05:07:56.982Z,8.70
2017-11-10T05:10:24.446Z,8.70
2017-11-10T05:12:51.923Z,8.70
2017-11-10T05:15:19.402Z,8.70
2017-11-10T05:17:47.083Z,8.70
2017-11-10T05:20:15.309Z,8.70
2017-11-10T05:22:42.793Z,8.70
2017-11-10T05:25:10.253Z,8.70
2017-11-10T05:27:37.734Z,8.70
2017-11-10T05:30:05.967Z,8.70
2017-11-10T05:32:33.446Z,8.70
2017-11-10T05:35:00.946Z,8.70
2017-11-10T05:37:28.427Z,8.70
2017-11-10T05:39:55.899Z,8.70
2017-11-10T05:42:24.138Z,8.70
2017-11-10T05:44:51.676Z,8.70
2017-11-10T05:47:19.130Z,8.70
2017-11-10T05:49:46.612Z,8.70
2017-11-10T05:52:14.070Z,8.70
2017-11-10T05:54:41.554Z,8.80
2017-11-10T05:57:09.024Z,8.80
2017-11-10T05:59:36.569Z,8.80
2017-11-10T06:02:04.002Z,8.80
2017-11-10T06:04:31.538Z,8.80
2017-11-10T06:06:59.003Z,8.80
2017-11-10T06:09:26.497Z,8.80
2017-11-10T06:11:54.071Z,8.80
2017-11-10T06:14:21.565Z,8.80
2017-11-10T06:16:49.057Z,8.80
2017-11-10T06:19:16.534Z,8.80
2017-11-10T06:21:43.999Z,8.80
2017-11-10T06:24:11.469Z,8.80
2017-11-10T06:26:38.944Z,8.80
2017-11-10T06:29:07.181Z,8.90
2017-11-10T06:31:34.655Z,8.80
2017-11-10T06:34:02.923Z,8.90
2017-11-10T06:36:31.905Z,8.90
2017-11-10T06:38:59.368Z,8.90
2017-11-10T06:41:26.958Z,9.00
2017-11-10T06:43:55.202Z,8.90
2017-11-10T06:46:22.659Z,8.90
2017-11-10T06:48:50.329Z,8.90
2017-11-10T06:51:19.293Z,8.90
2017-11-10T06:53:46.756Z,8.90
2017-11-10T06:56:14.258Z,9.00
2017-11-10T06:58:42.517Z,9.00
2017-11-10T07:01:10.423Z,9.00
2017-11-10T07:03:37.932Z,9.00
2017-11-10T07:06:05.466Z,8.90
2017-11-10T07:08:33.760Z,8.90
2017-11-10T07:11:01.254Z,9.00
2017-11-10T07:13:28.736Z,9.00
2017-11-10T07:15:56.219Z,9.00
2017-11-10T07:18:23.711Z,8.90
2017-11-10T07:20:51.954Z,8.80
2017-11-10T07:23:19.463Z,8.80
2017-11-10T07:25:46.962Z,8.80
2017-11-10T07:28:14.454Z,8.80
2017-11-10T07:30:42.753Z,8.80
2017-11-10T07:33:10.252Z,8.70
2017-11-10T07:35:37.815Z,8.80
2017-11-10T07:38:05.301Z,8.80
2017-11-10T07:40:32.778Z,8.80
2017-11-10T07:43:00.242Z,8.80
2017-11-10T07:45:27.786Z,8.80
2017-11-10T07:47:56.035Z,8.90
2017-11-10T07:50:23.514Z,8.90
2017-11-10T07:52:51.790Z,8.90
2017-11-10T07:55:20.070Z,9.00
2017-11-10T07:57:48.319Z,9.00
2017-11-10T08:00:16.510Z,9.00
2017-11-10T08:02:44.790Z,9.00
2017-11-10T08:05:13.060Z,9.10
2017-11-10T08:07:40.627Z,9.00
2017-11-10T08:10:08.178Z,9.00
2017-11-10T08:12:36.450Z,9.10
2017-11-10T08:15:03.924Z,9.10
2017-11-10T08:17:31.423Z,9.10
2017-11-10T08:19:59.137Z,9.10
2017-11-10T08:22:27.416Z,9.20
2017-11-10T08:24:55.681Z,9.20
2017-11-10T08:27:23.143Z,9.20
2017-11-10T08:29:50.694Z,9.20
2017-11-10T08:32:18.932Z,9.20
2017-11-10T08:34:46.894Z,9.10
2017-11-10T08:37:14.712Z,9.20
2017-11-10T08:39:43.210Z,9.20
2017-11-10T08:42:10.675Z,9.20
2017-11-10T08:44:38.167Z,9.20
2017-11-10T08:47:06.491Z,9.20
2017-11-10T08:49:34.853Z,9.30
2017-11-10T08:52:02.490Z,9.20
2017-11-10T08:54:30.034Z,9.30
2017-11-10T08:56:57.562Z,9.30
2017-11-10T08:59:25.144Z,9.30
2017-11-10T09:01:52.763Z,9.30
2017-11-10T09:04:21.146Z,9.40
2017-11-10T09:06:49.388Z,9.40
2017-11-10T09:09:16.931Z,9.40
2017-11-10T09:11:44.430Z,9.40
2017-11-10T09:14:12.718Z,9.50
2017-11-10T09:16:40.222Z,9.50
2017-11-10T09:19:07.782Z,9.50
2017-11-10T09:21:35.440Z,9.60
2017-11-10T09:24:03.104Z,9.60
2017-11-10T09:26:30.588Z,9.60
2017-11-10T09:29:02.755Z,9.70
2017-11-10T09:31:32.070Z,9.70
2017-11-10T09:34:16.075Z,9.70
2017-11-10T09:36:49.132Z,9.70
2017-11-10T09:39:27.474Z,9.70
2017-11-10T09:42:01.230Z,9.70
2017-11-10T09:44:43.635Z,9.70
2017-11-10T09:47:26.730Z,9.80
2017-11-10T09:49:57.651Z,9.80
2017-11-10T09:52:39.988Z,9.90
2017-11-10T09:55:10.877Z,9.90
2017-11-10T09:57:57.144Z,9.80
2017-11-10T10:00:30.266Z,9.90
2017-11-10T10:03:03.425Z,10.00
2017-11-10T10:05:41.738Z,10.00
2017-11-10T10:08:28.042Z,10.10
2017-11-10T10:11:12.345Z,10.10
2017-11-10T10:13:55.513Z,10.10
2017-11-10T10:16:30.590Z,10.10
2017-11-10T10:18:58.073Z,10.20
2017-11-10T10:21:27.054Z,10.20
2017-11-10T10:23:54.606Z,10.30
2017-11-10T10:26:22.070Z,10.30
2017-11-10T10:28:49.553Z,10.40
2017-11-10T10:31:17.782Z,10.40
2017-11-10T10:33:45.268Z,10.40
2017-11-10T10:36:12.732Z,10.40
2017-11-10T10:38:41.169Z,10.50
2017-11-10T10:41:08.633Z,10.50
2017-11-10T10:43:36.222Z,10.60
2017-11-10T10:46:05.216Z,10.80
2017-11-10T10:48:32.702Z,10.70
2017-11-10T10:51:00.272Z,10.80
2017-11-10T10:53:27.759Z,10.80
2017-11-10T10:55:55.227Z,10.90
2017-11-10T10:58:22.772Z,10.90
2017-11-10T11:00:50.254Z,10.90
2017-11-10T11:03:17.732Z,10.90
2017-11-10T11:05:45.985Z,10.90
2017-11-10T11:08:13.481Z,10.90
2017-11-10T11:10:40.928Z,10.90
2017-11-10T11:13:08.504Z,10.90
2017-11-10T11:15:35.975Z,10.90
2017-11-10T11:18:04.095Z,10.80
2017-11-10T11:20:32.330Z,10.80
2017-11-10T11:22:59.801Z,10.80
2017-11-10T11:25:27.270Z,10.80
2017-11-10T11:27:54.754Z,10.80
2017-11-10T11:30:23.017Z,10.80
2017-11-10T11:32:50.489Z,10.80
2017-11-10T11:35:18.757Z,10.70
2017-11-10T11:37:46.254Z,10.70
2017-11-10T11:40:13.858Z,10.60
2017-11-10T11:42:41.327Z,10.60
2017-11-10T11:45:09.581Z,10.50
2017-11-10T11:47:37.264Z,10.50
2017-11-10T11:50:04.729Z,10.40
2017-11-10T11:52:32.982Z,10.30
2017-11-10T11:55:00.466Z,10.30
2017-11-10T11:57:29.315Z,10.20
2017-11-10T11:59:56.789Z,10.20
2017-11-10T12:02:24.257Z,10.20
2017-11-10T12:04:51.718Z,10.20
2017-11-10T12:07:19.967Z,10.10
2017-11-10T12:09:47.618Z,10.10
2017-11-10T12:12:15.222Z,10.10
2017-11-10T12:14:43.454Z,10.10
2017-11-10T12:17:10.934Z,10.00
2017-11-10T12:19:38.393Z,10.10
2017-11-10T12:22:06.620Z,10.10
2017-11-10T12:27:08.710Z,10.10
2017-11-10T12:29:38.108Z,10.20
2017-11-10T12:32:05.670Z,10.20
2017-11-10T12:34:33.239Z,10.20
2017-11-10T12:37:00.697Z,10.30
2017-11-10T12:39:28.665Z,10.30
2017-11-10T12:41:56.146Z,10.30
2017-11-10T12:44:23.623Z,10.40
2017-11-10T12:46:51.860Z,10.70
2017-11-10T12:49:19.360Z,10.70
2017-11-10T12:51:47.586Z,10.70
2017-11-10T12:54:15.066Z,10.70
2017-11-10T12:56:42.542Z,10.70
2017-11-10T12:59:10.804Z,10.70
2017-11-10T13:01:38.261Z,10.70
2017-11-10T13:04:05.725Z,10.70
2017-11-10T13:06:33.988Z,10.60
2017-11-10T13:09:01.471Z,10.60
2017-11-10T13:11:29.780Z,10.70
2017-11-10T13:13:57.299Z,10.70
2017-11-10T13:16:24.813Z,10.70
2017-11-10T13:18:52.298Z,10.70
2017-11-10T13:21:19.941Z,10.90
2017-11-10T13:23:47.437Z,10.90
2017-11-10T13:26:15.010Z,10.90
2017-11-10T13:28:42.486Z,11.00
2017-11-10T13:31:09.956Z,11.00
2017-11-10T13:33:37.958Z,11.10
2017-11-10T13:36:05.467Z,11.10
2017-11-10T13:38:32.967Z,11.20
2017-11-10T13:41:02.049Z,11.40
2017-11-10T13:43:29.702Z,11.40
2017-11-10T13:45:57.175Z,11.50
2017-11-10T13:48:24.735Z,11.50
2017-11-10T13:50:52.229Z,11.50
2017-11-10T13:53:20.490Z,11.50
2017-11-10T13:55:48.718Z,11.40
2017-11-10T13:58:16.223Z,11.40
2017-11-10T14:00:43.724Z,11.40
2017-11-10T14:03:11.197Z,11.60
2017-11-10T14:05:38.675Z,11.70
2017-11-10T14:08:06.129Z,11.80
2017-11-10T14:10:33.628Z,11.90
2017-11-10T14:13:01.140Z,12.00
2017-11-10T14:15:28.679Z,12.00
2017-11-10T14:17:56.319Z,11.90
2017-11-10T14:20:23.794Z,11.90
2017-11-10T14:22:51.705Z,11.90
2017-11-10T14:25:20.062Z,12.10
2017-11-10T14:27:48.854Z,12.10
2017-11-10T14:30:16.418Z,12.10
2017-11-10T14:32:44.690Z,12.00
2017-11-10T14:35:13.147Z,12.00
2017-11-10T14:37:40.643Z,11.90
2017-11-10T14:40:08.879Z,11.70
2017-11-10T14:42:36.356Z,11.70
2017-11-10T14:45:03.827Z,11.60
2017-11-10T14:47:31.340Z,11.50
2017-11-10T14:49:58.994Z,11.50
2017-11-10T14:52:26.512Z,11.40
2017-11-10T14:54:55.011Z,11.40
2017-11-10T14:57:23.108Z,11.40
2017-11-10T14:59:50.650Z,11.40
2017-11-10T15:02:18.136Z,11.40
2017-11-10T15:04:45.649Z,11.30
2017-11-10T15:07:14.382Z,11.20
2017-11-10T15:09:41.851Z,11.20
2017-11-10T15:12:09.413Z,11.20
2017-11-10T15:14:37.037Z,11.20
2017-11-10T15:17:04.713Z,11.20
2017-11-10T15:19:32.194Z,11.10
2017-11-10T15:21:59.907Z,11.10
2017-11-10T15:24:27.410Z,11.10
2017-11-10T15:26:54.989Z,11.10
2017-11-10T15:29:23.355Z,11.00
2017-11-10T15:31:50.949Z,11.00
2017-11-10T15:34:19.198Z,10.80
2017-11-10T15:36:46.723Z,10.80
2017-11-10T15:39:14.190Z,10.90
2017-11-10T15:41:41.678Z,10.80
2017-11-10T15:44:09.952Z,10.70
2017-11-10T15:46:37.683Z,10.70
2017-11-10T15:49:05.146Z,10.60
2017-11-10T15:51:32.610Z,10.60
2017-11-10T15:54:00.189Z,10.60
2017-11-10T15:56:27.717Z,10.50
2017-11-10T15:58:55.394Z,10.50
2017-11-10T16:01:22.867Z,10.50
2017-11-10T16:03:51.166Z,10.30
2017-11-10T16:06:18.681Z,10.30
2017-11-10T16:08:46.153Z,10.30
2017-11-10T16:11:14.426Z,10.20
2017-11-10T16:13:41.907Z,10.20
2017-11-10T16:16:10.326Z,10.10
2017-11-10T16:18:38.029Z,10.10
2017-11-10T16:21:05.508Z,10.20
2017-11-10T16:23:33.340Z,10.00
2017-11-10T16:26:00.889Z,10.00
2017-11-10T16:28:28.369Z,9.90
2017-11-10T16:30:56.631Z,10.00
2017-11-10T16:33:24.111Z,10.00
2017-11-10T16:35:52.624Z,10.00
2017-11-10T16:38:20.098Z,10.00
2017-11-10T16:40:47.586Z,10.00
2017-11-10T16:43:15.865Z,9.90
2017-11-10T16:45:43.471Z,9.90
2017-11-10T16:48:10.969Z,9.90
2017-11-10T16:50:38.444Z,9.90
2017-11-10T16:53:05.950Z,9.80
2017-11-10T16:55:34.000Z,9.80
2017-11-10T16:58:01.936Z,9.80
2017-11-10T17:00:29.506Z,9.70
2017-11-10T17:02:57.012Z,9.70
2017-11-10T17:05:24.528Z,9.60
2017-11-10T17:07:52.771Z,9.70
2017-11-10T17:10:20.250Z,9.70
2017-11-10T17:12:47.739Z,9.70
2017-11-10T17:15:15.251Z,9.70
2017-11-10T17:17:42.727Z,9.60
2017-11-10T17:20:11.870Z,9.60
2017-11-10T17:22:39.668Z,9.60
2017-11-10T17:25:07.999Z,9.60
2017-11-10T17:27:35.919Z,9.60
2017-11-10T17:30:04.270Z,9.50
2017-11-10T17:32:32.360Z,9.50
2017-11-10T17:35:00.086Z,9.60
2017-11-10T17:37:27.612Z,9.40
2017-11-10T17:39:56.104Z,9.40
2017-11-10T17:42:23.596Z,9.40
2017-11-10T17:44:51.132Z,9.40
2017-11-10T17:47:18.826Z,9.40
2017-11-10T17:49:46.353Z,9.30
2017-11-10T17:52:13.840Z,9.40
2017-11-10T17:54:41.338Z,9.40
2017-11-10T17:57:09.580Z,9.30
2017-11-10T17:59:37.053Z,9.30
2017-11-10T18:02:04.534Z,9.30
2017-11-10T18:04:33.492Z,9.30
2017-11-10T18:07:02.473Z,9.20
2017-11-10T18:09:29.946Z,9.20
2017-11-10T18:11:58.226Z,9.20
2017-11-10T18:14:25.721Z,9.10
2017-11-10T18:16:53.343Z,9.10
2017-11-10T18:19:21.191Z,9.00
2017-11-10T18:21:48.709Z,9.00
2017-11-10T18:24:16.310Z,8.90
2017-11-10T18:26:43.806Z,8.90
2017-11-10T18:29:12.040Z,9.00
2017-11-10T18:31:39.703Z,9.00
2017-11-10T18:34:07.249Z,9.00
2017-11-10T18:36:34.767Z,9.00
2017-11-10T18:39:03.035Z,8.90
2017-11-10T18:41:31.313Z,8.90
2017-11-10T18:43:59.774Z,8.90
2017-11-10T18:46:28.121Z,8.80
2017-11-10T18:48:57.598Z,8.80
2017-11-10T18:51:25.422Z,8.80
2017-11-10T18:53:52.943Z,8.80
2017-11-10T18:56:20.430Z,8.80
2017-11-10T18:58:48.815Z,8.70
2017-11-10T19:01:16.301Z,8.70
2017-11-10T19:03:43.789Z,8.60
2017-11-10T19:06:11.308Z,8.70
2017-11-10T19:08:39.618Z,8.60
2017-11-10T19:11:07.142Z,8.60
2017-11-10T19:13:35.556Z,8.60
2017-11-10T19:16:03.345Z,8.50
2017-11-10T19:18:30.817Z,8.50
2017-11-10T19:20:58.324Z,8.50
2017-11-10T19:23:25.802Z,8.50
2017-11-10T19:25:53.278Z,8.40
2017-11-10T19:28:20.766Z,8.40
2017-11-10T19:30:49.249Z,8.40
2017-11-10T19:33:17.562Z,8.40
2017-11-10T19:35:45.141Z,8.30
2017-11-10T19:38:12.604Z,8.30
2017-11-10T19:40:40.148Z,8.30
2017-11-10T19:43:07.650Z,8.30
2017-11-10T19:45:35.946Z,8.20
2017-11-10T19:48:03.451Z,8.20
2017-11-10T19:50:31.782Z,8.20
2017-11-10T19:52:59.297Z,8.20
2017-11-10T19:55:27.883Z,8.20
2017-11-10T19:57:55.391Z,8.20
2017-11-10T20:00:22.886Z,8.10
2017-11-10T20:02:50.416Z,8.10
2017-11-10T20:05:17.902Z,8.00
2017-11-10T20:07:45.432Z,8.00
2017-11-10T20:10:12.919Z,8.00
2017-11-10T20:12:40.379Z,7.90
2017-11-10T20:15:07.874Z,8.00
2017-11-10T20:17:36.120Z,8.10
2017-11-10T20:20:03.609Z,8.10
2017-11-10T20:22:31.118Z,8.10
2017-11-10T20:24:58.591Z,8.10
2017-11-10T20:27:27.600Z,8.30
2017-11-10T20:29:55.851Z,8.30
2017-11-10T20:32:24.018Z,8.30
2017-11-10T20:34:51.498Z,8.30
2017-11-10T20:37:19.243Z,8.20
2017-11-10T20:39:46.741Z,8.10
2017-11-10T20:42:14.226Z,8.00
2017-11-10T20:44:41.714Z,8.00
2017-11-10T20:47:11.121Z,8.00
2017-11-10T20:49:39.307Z,8.00
2017-11-10T20:52:08.448Z,8.10
2017-11-10T20:54:35.996Z,8.10
2017-11-10T20:57:03.477Z,8.00
2017-11-10T20:59:30.976Z,7.90
2017-11-10T21:01:58.438Z,7.90
2017-11-10T21:04:25.968Z,7.80
2017-11-10T21:06:53.477Z,7.80
2017-11-10T21:09:20.940Z,7.60
2017-11-10T21:11:48.412Z,7.50
2017-11-10T21:14:15.905Z,7.40
2017-11-10T21:16:43.389Z,7.40
2017-11-10T21:19:11.611Z,7.30
2017-11-10T21:21:39.102Z,7.30
2017-11-10T21:24:06.579Z,7.30
2017-11-10T21:26:34.954Z,7.30
2017-11-10T21:29:07.379Z,7.20
2017-11-10T21:31:34.844Z,7.20
2017-11-10T21:34:02.339Z,7.20
2017-11-10T21:36:29.950Z,7.20
2017-11-10T21:38:57.438Z,7.20
2017-11-10T21:41:25.139Z,7.20
2017-11-10T21:43:52.632Z,7.20
2017-11-10T21:46:20.185Z,7.20
2017-11-10T21:48:47.676Z,7.20
2017-11-10T21:51:15.368Z,7.20
2017-11-10T21:53:43.664Z,7.30
2017-11-10T21:56:11.120Z,7.30
2017-11-10T21:58:38.607Z,7.30
2017-11-10T22:01:06.077Z,7.40
2017-11-10T22:03:33.588Z,7.40
2017-11-10T22:06:01.268Z,7.40
2017-11-10T22:08:28.758Z,7.50
2017-11-10T22:10:56.226Z,7.40
2017-11-10T22:13:24.505Z,7.40
2017-11-10T22:15:52.004Z,7.40
2017-11-10T22:18:20.044Z,7.40
2017-11-10T22:20:48.478Z,7.30
2017-11-10T22:23:16.321Z,7.30
2017-11-10T22:25:44.746Z,7.30
2017-11-10T22:28:12.212Z,7.30
2017-11-10T22:30:39.721Z,7.30
2017-11-10T22:33:07.201Z,7.30
2017-11-10T22:35:34.860Z,7.40
2017-11-10T22:38:02.344Z,7.30
2017-11-10T22:40:29.822Z,7.20
2017-11-10T22:42:58.070Z,7.00
2017-11-10T22:45:25.639Z,7.00
2017-11-10T22:47:53.160Z,6.90
2017-11-10T22:50:21.842Z,6.90
2017-11-10T22:52:49.313Z,6.90
2017-11-10T22:55:16.918Z,7.00
2017-11-10T22:57:45.146Z,6.80
2017-11-10T23:00:12.640Z,6.80
2017-11-10T23:02:40.862Z,6.70
2017-11-10T23:05:08.350Z,6.70
2017-11-10T23:07:35.814Z,6.70
2017-11-10T23:10:03.334Z,6.70
2017-11-10T23:12:30.794Z,6.70
2017-11-10T23:14:58.289Z,6.70
2017-11-10T23:17:25.995Z,6.50
2017-11-10T23:19:53.458Z,6.60
2017-11-10T23:22:20.930Z,6.60
2017-11-10T23:24:48.398Z,6.50
2017-11-10T23:27:16.001Z,6.50
2017-11-10T23:29:44.229Z,6.30
2017-11-10T23:34:46.237Z,6.20
2017-11-10T23:37:13.697Z,6.30
2017-11-10T23:39:41.165Z,6.30
2017-11-10T23:42:09.395Z,6.40
2017-11-10T23:44:36.872Z,6.40
2017-11-10T23:47:04.330Z,6.40
2017-11-10T23:49:31.816Z,6.40
2017-11-10T23:52:00.041Z,6.20
2017-11-10T23:54:27.717Z,6.30
2017-11-10T23:56:55.211Z,6.30
2017-11-10T23:59:22.663Z,6.20
